Time;durP1;ratioP1;P1;durP2;ratioP2;P2;SDS_P1;SDS_P2;PMS_P1;PMS_P2;Temp;Humidity;BMP_temperature;BMP_pressure;BME280_temperature;BME280_humidity;BME280_pressure;Samples;Min_cycle;Max_cycle;Signal;HPM_P1;HPM_P2
2023/03/14 00:02:17;;;;;;;;;;;22.00;49.90;;;;;;6127030;29;19973;-48
2023/03/14 00:05:18;;;;;;;;;;;22.20;50.10;;;;;;6126914;29;20339;-46
2023/03/14 00:08:21;;;;;;;;;;;21.90;50.00;;;;;;6126527;29;19923;-47
2023/03/14 00:11:23;;;;;;;;;;;22.20;50.10;;;;;;6126910;29;20334;-47
2023/03/14 00:14:24;;;;;;;;;;;21.90;50.00;;;;;;6126102;29;19923;-46
2023/03/14 00:17:26;;;;;;;;;;;22.00;50.10;;;;;;6126351;29;19923;-47
2023/03/14 00:20:27;;;;;;;;;;;22.00;50.00;;;;;;6126342;29;19922;-47
2023/03/14 00:23:29;;;;;;;;;;;22.30;50.20;;;;;;6126056;29;19954;-46
2023/03/14 00:26:32;;;;;;;;;;;21.80;49.90;;;;;;6124953;29;19929;-45
2023/03/14 00:29:34;;;;;;;;;;;21.90;50.00;;;;;;6126022;29;19929;-48
2023/03/14 00:32:36;;;;;;;;;;;22.20;50.10;;;;;;6125853;29;19927;-48
2023/03/14 00:35:37;;;;;;;;;;;22.10;50.20;;;;;;6124731;29;19922;-48
2023/03/14 00:38:39;;;;;;;;;;;21.80;50.10;;;;;;6125782;29;19923;-47
2023/03/14 00:41:41;;;;;;;;;;;21.90;50.00;;;;;;6126142;29;19939;-46
2023/03/14 00:44:42;;;;;;;;;;;21.80;50.10;;;;;;6130092;29;19930;-48
2023/03/14 00:47:45;;;;;;;;;;;21.80;50.10;;;;;;6130043;29;19922;-46
2023/03/14 00:50:47;;;;;;;;;;;21.80;50.10;;;;;;6129681;29;19930;-49
2023/03/14 00:53:51;;;;;;;;;;;22.20;50.90;;;;;;6128552;29;19923;-46
2023/03/14 00:56:53;;;;;;;;;;;21.90;50.20;;;;;;6129693;29;19923;-47
2023/03/14 00:59:57;;;;;;;;;;;21.80;50.20;;;;;;6129535;29;19954;-47
2023/03/14 01:02:58;;;;;;;;;;;22.30;49.70;;;;;;6129687;29;19929;-47
2023/03/14 01:06:06;;;;;;;;;;;21.90;50.20;;;;;;6129855;29;19993;-48
2023/03/14 01:09:09;;;;;;;;;;;21.90;50.20;;;;;;6129434;29;20408;-43
2023/03/14 01:12:11;;;;;;;;;;;21.80;50.20;;;;;;6129772;29;19922;-46
2023/03/14 01:15:12;;;;;;;;;;;21.90;50.30;;;;;;6129259;29;19926;-50
2023/03/14 01:18:14;;;;;;;;;;;21.80;50.40;;;;;;6129969;29;20315;-44
2023/03/14 01:21:16;;;;;;;;;;;22.10;50.60;;;;;;6129417;29;19922;-48
2023/03/14 01:24:18;;;;;;;;;;;22.30;50.60;;;;;;6129168;29;19923;-50
2023/03/14 01:27:23;;;;;;;;;;;22.10;50.60;;;;;;6128802;29;19923;-46
2023/03/14 01:30:25;;;;;;;;;;;21.80;50.40;;;;;;6128935;29;19923;-49
2023/03/14 01:33:26;;;;;;;;;;;21.60;50.20;;;;;;6129096;29;19926;-47
2023/03/14 01:36:28;;;;;;;;;;;21.80;50.40;;;;;;6129284;29;19922;-50
2023/03/14 01:39:34;;;;;;;;;;;21.80;50.40;;;;;;6128823;29;19929;-48
2023/03/14 01:42:36;;;;;;;;;;;21.70;50.40;;;;;;6128785;29;19930;-44
2023/03/14 01:45:48;;;;;;;;;;;21.90;50.50;;;;;;6128849;29;19934;-47
2023/03/14 01:48:54;;;;;;;;;;;21.70;50.20;;;;;;6129275;29;19927;-50
2023/03/14 01:51:57;;;;;;;;;;;21.90;50.30;;;;;;6128511;29;19929;-47
2023/03/14 01:54:59;;;;;;;;;;;22.00;50.30;;;;;;6128669;29;19922;-50
2023/03/14 01:58:03;;;;;;;;;;;21.70;50.30;;;;;;6127360;29;19982;-49
2023/03/14 02:01:06;;;;;;;;;;;22.10;50.60;;;;;;6127540;29;19986;-51
2023/03/14 02:04:08;;;;;;;;;;;21.70;50.20;;;;;;6129093;29;19923;-51
2023/03/14 02:07:12;;;;;;;;;;;21.70;50.20;;;;;;6129134;29;19946;-47
2023/03/14 02:10:21;;;;;;;;;;;21.70;50.20;;;;;;6128372;29;19962;-46
2023/03/14 02:13:25;;;;;;;;;;;21.60;50.10;;;;;;6127950;29;19946;-50
2023/03/14 02:16:38;;;;;;;;;;;22.00;50.40;;;;;;6128431;29;19953;-48
2023/03/14 02:20:10;;;;;;;;;;;21.60;50.30;;;;;;6128184;29;19930;-49
2023/03/14 02:23:16;;;;;;;;;;;21.60;50.10;;;;;;6128179;29;19922;-48
2023/03/14 02:26:23;;;;;;;;;;;22.00;50.20;;;;;;6128606;29;19995;-50
2023/03/14 02:29:25;;;;;;;;;;;21.80;50.20;;;;;;6128240;29;19929;-47
2023/03/14 02:32:28;;;;;;;;;;;21.70;50.20;;;;;;6128486;29;19927;-48
2023/03/14 02:35:33;;;;;;;;;;;21.60;50.10;;;;;;6128314;29;20287;-47
2023/03/14 02:38:37;;;;;;;;;;;21.50;50.00;;;;;;6128035;29;19973;-50
2023/03/14 02:41:42;;;;;;;;;;;21.50;50.10;;;;;;6128397;29;19973;-48
2023/03/14 02:44:49;;;;;;;;;;;21.70;50.30;;;;;;6127840;29;19922;-49
2023/03/14 02:47:53;;;;;;;;;;;21.90;50.80;;;;;;6128009;29;19922;-50
2023/03/14 02:50:57;;;;;;;;;;;22.00;50.30;;;;;;6128226;29;19970;-48
2023/03/14 02:54:02;;;;;;;;;;;21.80;50.10;;;;;;6127950;29;19923;-46
2023/03/14 02:57:07;;;;;;;;;;;21.60;49.20;;;;;;6127836;29;19929;-45
2023/03/14 03:00:10;;;;;;;;;;;21.70;49.50;;;;;;6128060;29;19923;-49
2023/03/14 03:03:13;;;;;;;;;;;21.70;50.10;;;;;;6127831;29;19923;-47
2023/03/14 03:06:15;;;;;;;;;;;21.40;50.00;;;;;;6127188;29;19954;-49
2023/03/14 03:09:19;;;;;;;;;;;21.50;50.10;;;;;;6127737;29;19923;-47
2023/03/14 03:12:20;;;;;;;;;;;21.40;50.00;;;;;;6127819;29;19923;-49
2023/03/14 03:15:23;;;;;;;;;;;21.20;49.90;;;;;;6127662;29;19922;-49
2023/03/14 03:18:25;;;;;;;;;;;21.40;49.80;;;;;;6126119;29;19929;-47
2023/03/14 03:21:28;;;;;;;;;;;22.00;50.30;;;;;;6127570;29;20306;-45
2023/03/14 03:24:29;;;;;;;;;;;21.30;49.90;;;;;;6127376;29;19922;-48
2023/03/14 03:27:33;;;;;;;;;;;21.20;49.90;;;;;;6127242;29;19922;-50
2023/03/14 03:30:38;;;;;;;;;;;21.30;49.80;;;;;;6127465;29;19922;-50
2023/03/14 03:33:39;;;;;;;;;;;21.30;49.80;;;;;;6126119;29;19930;-48
2023/03/14 03:36:44;;;;;;;;;;;21.30;49.80;;;;;;6127060;29;19922;-48
2023/03/14 03:39:49;;;;;;;;;;;21.40;49.10;;;;;;6127444;29;19934;-49
2023/03/14 03:42:51;;;;;;;;;;;21.30;49.70;;;;;;6127793;29;19930;-51
2023/03/14 03:45:53;;;;;;;;;;;21.30;49.80;;;;;;6127023;29;20413;-51
2023/03/14 03:48:57;;;;;;;;;;;21.60;50.00;;;;;;6127261;29;20021;-46
2023/03/14 03:52:00;;;;;;;;;;;21.80;50.00;;;;;;6125949;29;19923;-48
2023/03/14 03:55:02;;;;;;;;;;;21.50;49.80;;;;;;6126865;29;19970;-45
2023/03/14 03:58:03;;;;;;;;;;;21.20;49.60;;;;;;6127074;29;20375;-49
2023/03/14 04:01:06;;;;;;;;;;;21.20;49.60;;;;;;6127039;29;19922;-49
2023/03/14 04:04:07;;;;;;;;;;;21.70;49.80;;;;;;6126511;29;19923;-49
2023/03/14 04:07:09;;;;;;;;;;;21.20;49.70;;;;;;6127077;29;19974;-46
2023/03/14 04:10:11;;;;;;;;;;;21.50;49.80;;;;;;6126884;29;19930;-47
2023/03/14 04:13:19;;;;;;;;;;;21.30;49.70;;;;;;6126758;29;19957;-49
2023/03/14 04:16:26;;;;;;;;;;;22.00;48.90;;;;;;6127078;29;19930;-45
2023/03/14 04:19:35;;;;;;;;;;;21.20;49.60;;;;;;6129551;29;19926;-48
2023/03/14 04:22:36;;;;;;;;;;;21.30;49.60;;;;;;6130719;29;19927;-52
2023/03/14 04:25:39;;;;;;;;;;;21.20;49.60;;;;;;6130911;29;19923;-48
2023/03/14 04:28:41;;;;;;;;;;;21.60;49.80;;;;;;6145051;29;19950;-48
2023/03/14 04:31:45;;;;;;;;;;;21.00;49.40;;;;;;6130541;29;20025;-47
2023/03/14 04:34:46;;;;;;;;;;;21.10;49.50;;;;;;6130859;29;19926;-48
2023/03/14 04:37:48;;;;;;;;;;;21.00;49.40;;;;;;6130471;29;19923;-48
2023/03/14 04:40:51;;;;;;;;;;;21.30;49.50;;;;;;6130512;29;20013;-50
2023/03/14 04:43:54;;;;;;;;;;;21.00;49.40;;;;;;6130159;29;19963;-51
2023/03/14 04:46:57;;;;;;;;;;;21.40;49.50;;;;;;6130459;29;19927;-47
2023/03/14 04:49:59;;;;;;;;;;;21.00;49.30;;;;;;6130218;29;19922;-48
2023/03/14 04:53:01;;;;;;;;;;;21.00;49.40;;;;;;6130245;29;19930;-49
2023/03/14 04:56:03;;;;;;;;;;;21.40;49.60;;;;;;6130420;29;19983;-46
2023/03/14 04:59:11;;;;;;;;;;;21.00;49.20;;;;;;6130057;29;19922;-48
2023/03/14 05:02:16;;;;;;;;;;;21.10;49.30;;;;;;6130047;29;19923;-47
2023/03/14 05:05:31;;;;;;;;;;;21.20;49.30;;;;;;6129115;29;19923;-49
2023/03/14 05:08:42;;;;;;;;;;;21.10;49.30;;;;;;6129903;29;20375;-48
2023/03/14 05:11:55;;;;;;;;;;;21.50;49.50;;;;;;6129739;29;20383;-48
2023/03/14 05:15:11;;;;;;;;;;;21.00;49.10;;;;;;6130112;29;19923;-48
2023/03/14 05:18:24;;;;;;;;;;;21.30;49.10;;;;;;6129710;29;19923;-46
2023/03/14 05:21:39;;;;;;;;;;;20.90;49.00;;;;;;6129700;29;20074;-50
2023/03/14 05:24:58;;;;;;;;;;;21.30;49.20;;;;;;6129468;29;20386;-44
2023/03/14 05:28:23;;;;;;;;;;;21.10;49.00;;;;;;6129269;29;20017;-47
2023/03/14 05:31:32;;;;;;;;;;;21.10;47.80;;;;;;6129476;29;19926;-49
2023/03/14 05:34:46;;;;;;;;;;;21.00;49.00;;;;;;6129373;29;19978;-47
2023/03/14 05:37:59;;;;;;;;;;;21.30;49.20;;;;;;6129099;29;19993;-47
2023/03/14 05:41:20;;;;;;;;;;;21.10;49.00;;;;;;6129504;29;19923;-48
2023/03/14 05:44:45;;;;;;;;;;;21.00;48.90;;;;;;6128886;29;20326;-46
2023/03/14 05:48:06;;;;;;;;;;;21.00;48.80;;;;;;6129320;29;19929;-48
2023/03/14 05:51:18;;;;;;;;;;;21.70;49.30;;;;;;6129368;29;20374;-46
2023/03/14 05:54:36;;;;;;;;;;;21.00;48.90;;;;;;6129042;29;20409;-44
2023/03/14 05:57:48;;;;;;;;;;;21.40;49.20;;;;;;6129227;29;19922;-47
2023/03/14 06:01:09;;;;;;;;;;;20.80;48.80;;;;;;6128963;29;19930;-49
2023/03/14 06:04:26;;;;;;;;;;;21.30;48.80;;;;;;6128890;29;19923;-51
2023/03/14 06:07:32;;;;;;;;;;;21.10;48.80;;;;;;6128789;29;20346;-49
2023/03/14 06:10:34;;;;;;;;;;;21.50;49.10;;;;;;6128738;29;20013;-47
2023/03/14 06:13:36;;;;;;;;;;;20.90;49.30;;;;;;6129270;29;19926;-44
2023/03/14 06:16:39;;;;;;;;;;;20.80;48.80;;;;;;6128828;29;19977;-48
2023/03/14 06:19:40;;;;;;;;;;;20.90;48.70;;;;;;6127319;29;19926;-47
2023/03/14 06:22:45;;;;;;;;;;;21.20;48.90;;;;;;6129042;29;19985;-47
2023/03/14 06:25:47;;;;;;;;;;;20.90;48.70;;;;;;6128626;29;19958;-46
2023/03/14 06:28:50;;;;;;;;;;;21.30;48.90;;;;;;6128392;29;19954;-46
2023/03/14 06:31:52;;;;;;;;;;;20.90;48.60;;;;;;6128518;29;19926;-47
2023/03/14 06:34:53;;;;;;;;;;;21.70;49.00;;;;;;6128353;29;20017;-48
2023/03/14 06:37:56;;;;;;;;;;;20.90;48.50;;;;;;6128071;29;19929;-50
2023/03/14 06:41:02;;;;;;;;;;;21.50;48.90;;;;;;6127109;29;20457;-47
2023/03/14 06:44:10;;;;;;;;;;;20.90;48.30;;;;;;6126808;29;20306;-48
2023/03/14 06:47:12;;;;;;;;;;;21.20;48.50;;;;;;6128000;29;19927;-47
2023/03/14 06:50:17;;;;;;;;;;;21.10;48.30;;;;;;6127779;29;19949;-47
2023/03/14 06:53:21;;;;;;;;;;;21.40;48.50;;;;;;6127789;29;20072;-45
2023/03/14 06:56:25;;;;;;;;;;;20.90;48.00;;;;;;6127732;29;19923;-47
2023/03/14 06:59:29;;;;;;;;;;;21.30;48.30;;;;;;6127457;29;19923;-46
2023/03/14 07:02:32;;;;;;;;;;;20.90;48.00;;;;;;6127690;29;19929;-47
2023/03/14 07:05:54;;;;;;;;;;;21.60;48.40;;;;;;6127359;29;19926;-47
2023/03/14 07:08:57;;;;;;;;;;;21.10;47.70;;;;;;6127222;29;20033;-48
2023/03/14 07:12:04;;;;;;;;;;;21.40;48.10;;;;;;6126183;29;20299;-48
2023/03/14 07:15:06;;;;;;;;;;;21.00;47.60;;;;;;6127867;29;20299;-50
2023/03/14 07:18:26;;;;;;;;;;;21.30;47.20;;;;;;6127016;29;20283;-47
2023/03/14 07:21:27;;;;;;;;;;;21.00;47.50;;;;;;6126928;29;19972;-46
2023/03/14 07:24:30;;;;;;;;;;;21.40;47.70;;;;;;6127030;29;20298;-46
2023/03/14 07:27:31;;;;;;;;;;;21.30;47.60;;;;;;6127921;29;19923;-49
2023/03/14 07:30:33;;;;;;;;;;;21.40;47.60;;;;;;6127661;29;20279;-46
2023/03/14 07:33:37;;;;;;;;;;;21.30;47.50;;;;;;6127336;29;19926;-48
2023/03/14 07:36:40;;;;;;;;;;;21.60;47.50;;;;;;6127666;29;19923;-49
2023/03/14 07:39:42;;;;;;;;;;;21.40;47.30;;;;;;6127396;29;19929;-51
2023/03/14 07:42:54;;;;;;;;;;;21.60;47.40;;;;;;6128549;29;19946;-46
2023/03/14 07:46:03;;;;;;;;;;;21.50;46.20;;;;;;6127248;29;20347;-48
2023/03/14 07:49:04;;;;;;;;;;;21.70;47.30;;;;;;6126787;29;19923;-48
2023/03/14 07:52:05;;;;;;;;;;;21.20;46.90;;;;;;6130865;29;20017;-45
2023/03/14 07:55:08;;;;;;;;;;;21.90;47.30;;;;;;6132631;29;19933;-46
2023/03/14 07:58:09;;;;;;;;;;;21.20;46.80;;;;;;6134265;29;20294;-46
2023/03/14 08:01:10;;;;;;;;;;;21.70;47.10;;;;;;6137855;29;20017;-42
2023/03/14 08:04:12;;;;;;;;;;;21.20;46.70;;;;;;6134960;29;19930;-41
2023/03/14 08:07:15;;;;;;;;;;;21.70;46.90;;;;;;6135566;29;19923;-41
2023/03/14 08:10:21;;;;;;;;;;;21.30;46.60;;;;;;6135732;29;19934;-41
2023/03/14 08:13:25;;;;;;;;;;;21.90;46.80;;;;;;6136040;29;19923;-42
2023/03/14 08:16:26;;;;;;;;;;;21.60;46.70;;;;;;6136308;29;19922;-40
2023/03/14 08:19:27;;;;;;;;;;;21.70;46.70;;;;;;6134903;29;19950;-40
2023/03/14 08:22:30;;;;;;;;;;;21.30;46.50;;;;;;6134740;29;19923;-40
2023/03/14 08:25:32;;;;;;;;;;;21.70;45.70;;;;;;6138085;29;19922;-42
2023/03/14 08:28:33;;;;;;;;;;;21.40;46.40;;;;;;6136591;29;20368;-42
2023/03/14 08:31:34;;;;;;;;;;;22.10;46.80;;;;;;6136374;29;19922;-43
2023/03/14 08:34:37;;;;;;;;;;;21.40;46.20;;;;;;6134623;29;19929;-43
2023/03/14 08:37:38;;;;;;;;;;;21.80;46.10;;;;;;6135579;29;19926;-40
2023/03/14 08:40:40;;;;;;;;;;;21.40;46.10;;;;;;6135072;29;19923;-42
2023/03/14 08:43:41;;;;;;;;;;;21.70;46.30;;;;;;6137137;29;19926;-41
2023/03/14 08:46:43;;;;;;;;;;;21.60;46.10;;;;;;6138790;29;19923;-43
2023/03/14 08:49:46;;;;;;;;;;;21.80;46.20;;;;;;6137319;29;19923;-45
2023/03/14 08:52:47;;;;;;;;;;;21.50;45.90;;;;;;6135922;29;19966;-44
2023/03/14 08:55:52;;;;;;;;;;;21.80;46.40;;;;;;6135734;29;19923;-42
2023/03/14 08:58:54;;;;;;;;;;;21.40;45.80;;;;;;6134723;29;19926;-40
2023/03/14 09:01:55;;;;;;;;;;;22.60;46.40;;;;;;6133568;29;19955;-44
2023/03/14 09:04:56;;;;;;;;;;;21.40;45.80;;;;;;6134467;29;19923;-44
2023/03/14 09:07:58;;;;;;;;;;;22.10;46.10;;;;;;6134203;29;20343;-42
2023/03/14 09:11:00;;;;;;;;;;;21.40;45.70;;;;;;6133645;29;19923;-46
2023/03/14 09:14:01;;;;;;;;;;;21.80;45.80;;;;;;6132713;29;19934;-41
2023/03/14 09:17:03;;;;;;;;;;;21.50;45.60;;;;;;6133749;29;20387;-41
2023/03/14 09:20:07;;;;;;;;;;;21.90;45.70;;;;;;6133069;29;19930;-41
2023/03/14 09:23:08;;;;;;;;;;;21.50;45.60;;;;;;6133575;29;20275;-41
2023/03/14 09:26:10;;;;;;;;;;;22.20;45.90;;;;;;6132414;29;20335;-43
2023/03/14 09:29:11;;;;;;;;;;;21.60;45.40;;;;;;6132002;29;19929;-44
2023/03/14 09:32:13;;;;;;;;;;;22.00;45.50;;;;;;6131638;29;20302;-40
2023/03/14 09:35:14;;;;;;;;;;;21.70;45.50;;;;;;6134204;29;19929;-42
2023/03/14 09:38:16;;;;;;;;;;;21.90;45.60;;;;;;6132276;29;19965;-43
2023/03/14 09:41:22;;;;;;;;;;;21.70;45.30;;;;;;6134503;29;19933;-45
2023/03/14 09:44:26;;;;;;;;;;;22.20;45.60;;;;;;6135412;29;19994;-44
2023/03/14 09:47:27;;;;;;;;;;;22.00;45.40;;;;;;6134664;29;19943;-43
2023/03/14 09:50:31;;;;;;;;;;;22.30;45.50;;;;;;6132767;29;19930;-43
2023/03/14 09:53:36;;;;;;;;;;;21.60;45.10;;;;;;6132130;29;19923;-41
2023/03/14 09:56:39;;;;;;;;;;;22.40;45.50;;;;;;6132850;29;20264;-42
2023/03/14 09:59:41;;;;;;;;;;;22.10;45.40;;;;;;6131539;29;19923;-41
2023/03/14 10:02:46;;;;;;;;;;;22.30;45.40;;;;;;6132149;29;19995;-43
2023/03/14 10:05:47;;;;;;;;;;;21.70;45.10;;;;;;6131894;29;19934;-42
2023/03/14 10:08:49;;;;;;;;;;;22.20;46.00;;;;;;6131471;29;19950;-44
2023/03/14 10:11:54;;;;;;;;;;;22.00;45.70;;;;;;6130262;29;19930;-42
2023/03/14 10:14:56;;;;;;;;;;;22.00;45.20;;;;;;6127344;29;19922;-44
2023/03/14 10:17:58;;;;;;;;;;;21.60;45.20;;;;;;6130824;29;19958;-41
2023/03/14 10:21:04;;;;;;;;;;;22.00;45.40;;;;;;6129748;29;19926;-44
2023/03/14 10:24:09;;;;;;;;;;;21.70;45.10;;;;;;6131098;29;19983;-42
2023/03/14 10:27:18;;;;;;;;;;;22.30;45.40;;;;;;6130738;29;19923;-42
2023/03/14 10:30:28;;;;;;;;;;;21.60;45.00;;;;;;6132697;29;19923;-45
2023/03/14 10:33:31;;;;;;;;;;;22.30;45.30;;;;;;6130783;29;19965;-44
2023/03/14 10:36:34;;;;;;;;;;;21.70;45.00;;;;;;6130996;29;20282;-43
2023/03/14 10:39:43;;;;;;;;;;;22.00;45.10;;;;;;6131008;29;19923;-46
2023/03/14 10:42:47;;;;;;;;;;;21.60;45.00;;;;;;6132796;29;20394;-42
2023/03/14 10:45:52;;;;;;;;;;;21.80;45.00;;;;;;6131262;29;19946;-41
2023/03/14 10:48:55;;;;;;;;;;;21.80;45.00;;;;;;6132660;29;20434;-40
2023/03/14 10:52:00;;;;;;;;;;;22.20;45.10;;;;;;6114039;29;20382;-40
2023/03/14 10:55:03;;;;;;;;;;;22.10;45.00;;;;;;6130762;29;20362;-46
2023/03/14 10:58:05;;;;;;;;;;;22.40;45.20;;;;;;6129333;29;19981;-48
2023/03/14 11:01:17;;;;;;;;;;;21.70;44.90;;;;;;6128082;29;20375;-49
2023/03/14 11:04:23;;;;;;;;;;;22.10;45.00;;;;;;6127168;29;19926;-47
2023/03/14 11:07:28;;;;;;;;;;;21.90;44.80;;;;;;6127145;29;19923;-49
2023/03/14 11:10:31;;;;;;;;;;;22.20;44.90;;;;;;6126012;29;19974;-47
2023/03/14 11:13:37;;;;;;;;;;;21.80;44.70;;;;;;6127204;29;19930;-47
2023/03/14 11:16:45;;;;;;;;;;;22.20;44.80;;;;;;6125768;29;19923;-49
2023/03/14 11:19:53;;;;;;;;;;;21.90;44.70;;;;;;6127279;29;20371;-50
2023/03/14 11:23:01;;;;;;;;;;;22.40;45.00;;;;;;6127130;29;20335;-50
2023/03/14 11:26:11;;;;;;;;;;;22.20;44.20;;;;;;6126505;29;19926;-48
2023/03/14 11:29:19;;;;;;;;;;;22.50;45.00;;;;;;6126564;29;19929;-47
2023/03/14 11:32:24;;;;;;;;;;;21.90;44.60;;;;;;6125603;29;19922;-48
2023/03/14 11:35:28;;;;;;;;;;;22.30;44.70;;;;;;6126991;29;19923;-47
2023/03/14 11:38:34;;;;;;;;;;;21.80;44.40;;;;;;6126399;29;20021;-47
2023/03/14 11:41:38;;;;;;;;;;;22.30;44.60;;;;;;6125424;29;20022;-48
2023/03/14 11:44:40;;;;;;;;;;;22.30;44.60;;;;;;6125763;29;19922;-46
2023/03/14 11:47:43;;;;;;;;;;;22.30;44.60;;;;;;6126470;29;20434;-51
2023/03/14 11:50:46;;;;;;;;;;;21.90;44.30;;;;;;6126933;29;19998;-48
2023/03/14 11:53:50;;;;;;;;;;;22.40;44.50;;;;;;6126273;29;20430;-48
2023/03/14 11:56:53;;;;;;;;;;;21.90;44.40;;;;;;6125694;29;19930;-50
2023/03/14 11:59:59;;;;;;;;;;;22.20;44.30;;;;;;6126621;29;19923;-47
2023/03/14 12:03:04;;;;;;;;;;;21.90;44.10;;;;;;6126969;29;19922;-49
2023/03/14 12:06:13;;;;;;;;;;;22.30;44.30;;;;;;6126301;29;19949;-50
2023/03/14 12:09:15;;;;;;;;;;;21.90;44.10;;;;;;6126565;29;19922;-47
2023/03/14 12:12:18;;;;;;;;;;;22.30;44.20;;;;;;6126691;29;19962;-49
2023/03/14 12:15:24;;;;;;;;;;;22.10;44.00;;;;;;6127096;29;19923;-48
2023/03/14 12:18:27;;;;;;;;;;;22.40;44.20;;;;;;6126561;29;19946;-50
2023/03/14 12:21:43;;;;;;;;;;;22.10;43.90;;;;;;6125061;29;19923;-48
2023/03/14 12:24:47;;;;;;;;;;;22.50;44.20;;;;;;6130468;29;19927;-46
2023/03/14 12:28:02;;;;;;;;;;;22.00;43.90;;;;;;6127820;29;20272;-45
2023/03/14 12:31:18;;;;;;;;;;;22.30;44.00;;;;;;6127394;29;19986;-46
2023/03/14 12:34:28;;;;;;;;;;;22.00;43.80;;;;;;6128614;29;19923;-48
2023/03/14 12:37:35;;;;;;;;;;;22.50;44.00;;;;;;6127108;29;20307;-51
2023/03/14 12:40:39;;;;;;;;;;;22.10;43.80;;;;;;6131072;29;19954;-46
2023/03/14 12:43:41;;;;;;;;;;;22.50;43.90;;;;;;6130775;29;19965;-47
2023/03/14 12:46:43;;;;;;;;;;;22.00;43.70;;;;;;6132292;29;19930;-49
2023/03/14 12:49:46;;;;;;;;;;;22.60;44.00;;;;;;6132925;29;19930;-49
2023/03/14 12:53:00;;;;;;;;;;;22.20;43.70;;;;;;6131613;29;19934;-47
2023/03/14 12:56:09;;;;;;;;;;;22.20;44.00;;;;;;6129055;29;19992;-48
2023/03/14 12:59:20;;;;;;;;;;;22.10;43.60;;;;;;6130769;29;19970;-50
2023/03/14 13:02:24;;;;;;;;;;;22.60;43.70;;;;;;6131756;29;19930;-48
2023/03/14 13:05:26;;;;;;;;;;;22.30;43.50;;;;;;6130069;29;19922;-51
2023/03/14 13:08:36;;;;;;;;;;;22.70;43.80;;;;;;6130780;29;20026;-48
2023/03/14 13:11:41;;;;;;;;;;;22.30;43.40;;;;;;6130613;29;19929;-50
2023/03/14 13:14:43;;;;;;;;;;;22.50;43.60;;;;;;6131436;29;19966;-49
2023/03/14 13:17:46;;;;;;;;;;;22.30;43.40;;;;;;6128406;29;20033;-52
2023/03/14 13:20:51;;;;;;;;;;;22.80;43.60;;;;;;6129914;29;19922;-53
2023/03/14 13:23:54;;;;;;;;;;;22.20;43.20;;;;;;6129531;29;20398;-51
2023/03/14 13:26:57;;;;;;;;;;;22.70;43.40;;;;;;6127772;29;19929;-51
2023/03/14 13:30:04;;;;;;;;;;;22.30;43.80;;;;;;6129824;29;19923;-49
2023/03/14 13:33:06;;;;;;;;;;;22.70;43.30;;;;;;6128300;29;20346;-50
2023/03/14 13:36:09;;;;;;;;;;;22.30;43.10;;;;;;6129005;29;19939;-50
2023/03/14 13:39:12;;;;;;;;;;;22.50;43.10;;;;;;6129148;29;19945;-49
2023/03/14 13:42:15;;;;;;;;;;;22.70;43.20;;;;;;6129619;29;19923;-50
2023/03/14 13:45:17;;;;;;;;;;;22.70;43.10;;;;;;6130876;29;20383;-51
2023/03/14 13:48:22;;;;;;;;;;;22.40;42.90;;;;;;6128792;29;19923;-51
2023/03/14 13:51:27;;;;;;;;;;;22.70;43.00;;;;;;6128974;29;19934;-45
2023/03/14 13:54:31;;;;;;;;;;;22.30;42.90;;;;;;6128651;29;19965;-49
2023/03/14 13:57:43;;;;;;;;;;;22.70;43.00;;;;;;6127596;29;19923;-50
2023/03/14 14:00:53;;;;;;;;;;;22.30;42.70;;;;;;6129173;29;19923;-46
2023/03/14 14:03:55;;;;;;;;;;;22.80;43.00;;;;;;6128903;29;20040;-51
2023/03/14 14:06:58;;;;;;;;;;;22.50;42.80;;;;;;6129874;29;19973;-49
2023/03/14 14:10:00;;;;;;;;;;;22.90;43.00;;;;;;6129102;29;19923;-53
2023/03/14 14:13:03;;;;;;;;;;;22.40;42.70;;;;;;6128744;29;19945;-52
2023/03/14 14:16:06;;;;;;;;;;;22.60;42.80;;;;;;6126995;29;20371;-50
2023/03/14 14:19:07;;;;;;;;;;;22.70;42.80;;;;;;6128566;29;19923;-52
2023/03/14 14:22:10;;;;;;;;;;;22.60;42.80;;;;;;6128637;29;19922;-52
2023/03/14 14:25:13;;;;;;;;;;;22.30;42.60;;;;;;6129105;29;19922;-50
2023/03/14 14:28:18;;;;;;;;;;;23.00;42.80;;;;;;6130445;29;19923;-51
2023/03/14 14:31:21;;;;;;;;;;;22.60;42.60;;;;;;6129637;29;20379;-52
2023/03/14 14:34:25;;;;;;;;;;;22.70;42.60;;;;;;6128492;29;19923;-46
2023/03/14 14:37:28;;;;;;;;;;;22.50;42.50;;;;;;6129954;29;19965;-44
2023/03/14 14:40:32;;;;;;;;;;;22.90;42.70;;;;;;6129809;29;19923;-47
2023/03/14 14:43:36;;;;;;;;;;;22.50;42.50;;;;;;6129550;29;20021;-50
2023/03/14 14:46:37;;;;;;;;;;;22.80;42.60;;;;;;6129459;29;19970;-47
2023/03/14 14:49:39;;;;;;;;;;;22.60;42.50;;;;;;6129146;29;19922;-44
2023/03/14 14:52:42;;;;;;;;;;;22.90;42.70;;;;;;6142804;29;19973;-47
2023/03/14 14:55:43;;;;;;;;;;;22.50;42.40;;;;;;6129120;29;19930;-49
2023/03/14 14:58:45;;;;;;;;;;;22.80;42.60;;;;;;6142130;29;20367;-46
2023/03/14 15:01:48;;;;;;;;;;;22.60;42.40;;;;;;6127326;29;19986;-46
2023/03/14 15:04:53;;;;;;;;;;;22.90;42.50;;;;;;6127735;29;20303;-49
2023/03/14 15:07:55;;;;;;;;;;;22.50;42.10;;;;;;6127407;29;19955;-49
2023/03/14 15:10:57;;;;;;;;;;;22.60;42.40;;;;;;6127391;29;19923;-48
2023/03/14 15:13:58;;;;;;;;;;;22.50;42.20;;;;;;6127829;29;20284;-45
2023/03/14 15:16:59;;;;;;;;;;;22.70;42.40;;;;;;6127212;29;19929;-46
2023/03/14 15:20:00;;;;;;;;;;;22.40;42.20;;;;;;6127046;29;20025;-45
2023/03/14 15:23:09;;;;;;;;;;;23.00;42.50;;;;;;6127134;29;20388;-45
2023/03/14 15:26:13;;;;;;;;;;;22.50;42.10;;;;;;6127020;29;19923;-46
2023/03/14 15:29:14;;;;;;;;;;;22.80;42.30;;;;;;6127168;29;19923;-45
2023/03/14 15:32:17;;;;;;;;;;;22.70;42.30;;;;;;6126891;29;19923;-45
2023/03/14 15:35:19;;;;;;;;;;;22.80;42.30;;;;;;6127021;29;19929;-46
2023/03/14 15:38:22;;;;;;;;;;;22.50;42.10;;;;;;6127232;29;19930;-52
2023/03/14 15:41:24;;;;;;;;;;;22.70;42.20;;;;;;6126844;29;19923;-49
2023/03/14 15:44:25;;;;;;;;;;;22.50;42.10;;;;;;6126878;29;19922;-48
2023/03/14 15:47:27;;;;;;;;;;;23.00;42.40;;;;;;6127114;29;19922;-46
2023/03/14 15:50:29;;;;;;;;;;;22.90;42.30;;;;;;6126831;29;20376;-48
2023/03/14 15:53:31;;;;;;;;;;;23.00;42.30;;;;;;6126887;29;19967;-47
2023/03/14 15:56:32;;;;;;;;;;;23.00;42.30;;;;;;6127031;29;19930;-44
2023/03/14 15:59:35;;;;;;;;;;;22.80;42.20;;;;;;6127155;29;20327;-47
2023/03/14 16:02:39;;;;;;;;;;;22.60;42.00;;;;;;6126661;29;19923;-47
2023/03/14 16:05:41;;;;;;;;;;;22.90;42.20;;;;;;6127619;29;19923;-45
2023/03/14 16:08:43;;;;;;;;;;;22.60;42.00;;;;;;6126523;29;19929;-49
2023/03/14 16:11:46;;;;;;;;;;;22.90;42.10;;;;;;6126934;29;19923;-47
2023/03/14 16:14:50;;;;;;;;;;;22.60;42.00;;;;;;6131224;29;19990;-46
2023/03/14 16:17:52;;;;;;;;;;;22.80;42.00;;;;;;6130806;29;19930;-49
2023/03/14 16:20:54;;;;;;;;;;;22.80;42.00;;;;;;6130700;29;19977;-47
2023/03/14 16:23:59;;;;;;;;;;;22.80;42.00;;;;;;6130386;29;19934;-48
2023/03/14 16:27:01;;;;;;;;;;;23.00;42.10;;;;;;6130567;29;19930;-50
2023/03/14 16:30:05;;;;;;;;;;;23.30;42.20;;;;;;6130903;29;19930;-49
2023/03/14 16:33:08;;;;;;;;;;;23.00;42.00;;;;;;6129266;29;19923;-46
2023/03/14 16:36:30;;;;;;;;;;;23.00;42.00;;;;;;6142618;29;19922;-50
2023/03/14 16:39:32;;;;;;;;;;;22.60;41.80;;;;;;6130273;29;20393;-48
2023/03/14 16:42:33;;;;;;;;;;;23.10;41.90;;;;;;6130468;29;19938;-49
2023/03/14 16:45:35;;;;;;;;;;;22.70;41.70;;;;;;6130737;29;20410;-47
2023/03/14 16:48:38;;;;;;;;;;;23.00;41.80;;;;;;6130102;29;19978;-47
2023/03/14 16:51:39;;;;;;;;;;;22.70;41.60;;;;;;6130124;29;19929;-45
2023/03/14 16:54:41;;;;;;;;;;;23.20;41.90;;;;;;6130378;29;19930;-44
2023/03/14 16:57:43;;;;;;;;;;;23.30;41.90;;;;;;6130681;29;19922;-47
2023/03/14 17:00:44;;;;;;;;;;;23.00;41.80;;;;;;6133682;29;19923;-46
2023/03/14 17:03:46;;;;;;;;;;;22.70;41.50;;;;;;6131599;29;19926;-53
2023/03/14 17:06:48;;;;;;;;;;;23.00;41.70;;;;;;6131999;29;19922;-49
2023/03/14 17:09:50;;;;;;;;;;;22.80;41.70;;;;;;6131122;29;19958;-45
2023/03/14 17:12:51;;;;;;;;;;;23.20;41.80;;;;;;6130961;29;19926;-47
2023/03/14 17:15:55;;;;;;;;;;;22.70;41.40;;;;;;6131248;29;19923;-49
2023/03/14 17:18:56;;;;;;;;;;;23.00;41.50;;;;;;6134808;29;20025;-53
2023/03/14 17:21:57;;;;;;;;;;;22.70;41.40;;;;;;6136289;29;20427;-51
2023/03/14 17:25:19;;;;;;;;;;;23.40;41.70;;;;;;6145174;28;19992;-50
2023/03/14 17:28:21;;;;;;;;;;;22.90;41.40;;;;;;6134487;29;19923;-52
2023/03/14 17:31:23;;;;;;;;;;;23.00;41.40;;;;;;6132875;29;19923;-49
2023/03/14 17:34:24;;;;;;;;;;;22.80;41.30;;;;;;6131339;29;19930;-47
2023/03/14 17:37:26;;;;;;;;;;;23.20;41.40;;;;;;6132632;29;20327;-47
2023/03/14 17:40:28;;;;;;;;;;;22.90;41.20;;;;;;6133933;29;19923;-49
2023/03/14 17:43:30;;;;;;;;;;;23.20;41.40;;;;;;6130246;29;20029;-46
2023/03/14 17:46:31;;;;;;;;;;;22.90;41.20;;;;;;6131269;29;19923;-50
2023/03/14 17:49:33;;;;;;;;;;;23.50;41.60;;;;;;6130760;29;19930;-51
2023/03/14 17:52:35;;;;;;;;;;;22.70;41.10;;;;;;6131421;29;19923;-48